Time;durP1;ratioP1;P1;durP2;ratioP2;P2;SDS_P1;SDS_P2;PMS_P1;PMS_P2;Temp;Humidity;BMP_temperature;BMP_pressure;BME280_temperature;BME280_humidity;BME280_pressure;Samples;Min_cycle;Max_cycle;Signal;HPM_P1;HPM_P2
2021/12/07 00:01:33;;;;;;;1.00;0.80;;;6.70;99.90;;;6.58;74.16;93684.09;5069386;28;20471;-59
2021/12/07 00:04:02;;;;;;;1.40;1.00;;;6.70;99.90;;;6.55;73.79;93680.94;5069976;28;20458;-57
2021/12/07 00:06:29;;;;;;;2.17;0.90;;;6.70;99.90;;;6.49;73.79;93684.97;5070207;28;20479;-58
2021/12/07 00:08:56;;;;;;;2.30;0.87;;;6.60;99.90;;;6.44;73.75;93685.38;5070082;28;20531;-58
2021/12/07 00:11:24;;;;;;;0.90;0.80;;;6.60;99.90;;;6.41;73.81;93690.91;5069633;28;20479;-58
2021/12/07 00:13:52;;;;;;;0.80;0.70;;;6.60;99.90;;;6.39;73.90;93692.81;5069896;28;20443;-58
2021/12/07 00:16:19;;;;;;;0.90;0.83;;;6.50;99.90;;;6.38;73.91;93701.63;5070255;28;20816;-60
2021/12/07 00:18:47;;;;;;;0.80;0.80;;;6.50;99.90;;;6.35;73.66;93683.63;5070122;28;20655;-56
2021/12/07 00:21:17;;;;;;;1.00;0.97;;;6.50;99.90;;;6.34;74.13;93689.81;5070609;28;20542;-57
2021/12/07 00:23:44;;;;;;;0.80;0.70;;;6.50;99.90;;;6.33;73.86;93682.94;5070259;28;20538;-57
2021/12/07 00:26:12;;;;;;;0.80;0.70;;;6.50;99.90;;;6.32;73.92;93691.75;5070265;28;20518;-58
2021/12/07 00:28:39;;;;;;;0.80;0.73;;;6.40;99.90;;;6.32;74.23;93680.47;5067540;28;20492;-58
2021/12/07 00:31:13;;;;;;;0.80;0.80;;;6.40;99.90;;;6.30;73.86;93688.44;5069489;28;20829;-58
2021/12/07 00:33:47;;;;;;;0.93;0.80;;;6.40;99.90;;;6.28;74.00;93680.75;5068468;28;20446;-57
2021/12/07 00:36:15;;;;;;;0.90;0.80;;;6.40;99.90;;;6.27;74.43;93688.72;5068655;28;21017;-58
2021/12/07 00:38:43;;;;;;;1.10;0.80;;;6.40;99.90;;;6.26;74.09;93689.72;5069949;28;20454;-57
2021/12/07 00:41:10;;;;;;;0.80;0.60;;;6.40;99.90;;;6.27;74.29;93699.19;5070287;28;20470;-58
2021/12/07 00:43:37;;;;;;;0.80;0.70;;;6.40;99.90;;;6.25;74.29;93698.50;5069608;28;20459;-59
2021/12/07 00:46:07;;;;;;;0.80;0.73;;;6.40;99.90;;;6.25;74.35;93696.72;5069206;28;20481;-58
2021/12/07 00:48:35;;;;;;;1.10;0.80;;;6.30;99.90;;;6.26;74.35;93697.56;5069030;28;20489;-58
2021/12/07 00:51:02;;;;;;;1.07;0.70;;;6.40;99.90;;;6.25;74.69;93696.72;5069411;28;20482;-59
2021/12/07 00:53:31;;;;;;;0.70;0.57;;;6.40;99.90;;;6.24;73.94;93705.53;5069669;28;20473;-59
2021/12/07 00:56:00;;;;;;;2.40;0.70;;;6.40;99.90;;;6.21;74.28;93702.34;5069703;28;20842;-57
2021/12/07 00:58:30;;;;;;;1.80;0.80;;;6.30;99.90;;;6.22;74.42;93702.22;5069258;28;20590;-57
2021/12/07 01:00:59;;;;;;;0.97;0.60;;;6.30;99.90;;;6.26;74.07;93702.78;5067396;28;20532;-57
2021/12/07 01:03:27;;;;;;;0.70;0.50;;;6.40;99.90;;;6.28;74.51;93704.25;5069220;28;20458;-58
2021/12/07 01:06:05;;;;;;;0.70;0.47;;;6.40;99.90;;;6.31;74.18;93703.16;5069031;28;20501;-58
2021/12/07 01:25:18;;;;;;;1.00;0.50;;;6.60;99.90;;;6.45;74.23;93696.66;5068738;28;20450;-58
2021/12/07 01:27:47;;;;;;;1.23;0.50;;;6.60;99.90;;;6.46;74.03;93699.13;5068817;28;20509;-58
2021/12/07 01:30:19;;;;;;;0.70;0.50;;;6.60;99.90;;;6.46;74.52;93693.91;5065966;28;20487;-58
2021/12/07 01:33:09;;;;;;;0.83;0.40;;;6.60;99.90;;;6.48;73.71;93692.94;5066127;28;20517;-59
2021/12/07 01:38:38;;;;;;;0.70;0.53;;;6.60;99.90;;;6.46;74.41;93695.69;5066048;28;20480;-58
2021/12/07 01:41:25;;;;;;;0.70;0.50;;;6.60;99.90;;;6.45;74.33;93689.63;5066142;28;20470;-59
2021/12/07 01:44:14;;;;;;;1.40;0.70;;;6.60;99.90;;;6.48;73.77;93687.72;5067821;28;20817;-59
2021/12/07 01:46:56;;;;;;;0.80;0.50;;;6.60;99.90;;;6.48;74.42;93685.09;5068710;28;20463;-56
2021/12/07 01:49:59;;;;;;;0.80;0.50;;;6.60;99.90;;;6.48;74.18;93685.09;5069337;28;20543;-58
2021/12/07 02:00:53;;;;;;;0.80;0.50;;;6.60;99.90;;;6.42;73.79;93671.63;5068135;28;20478;-57
2021/12/07 02:03:20;;;;;;;0.70;0.60;;;6.50;99.90;;;6.41;74.08;93662.19;5067574;28;20496;-57
2021/12/07 02:05:48;;;;;;;0.87;0.70;;;6.50;99.90;;;6.38;73.88;93662.47;5068536;28;20552;-57
2021/12/07 02:08:15;;;;;;;1.20;0.50;;;6.50;99.90;;;6.36;73.75;93653.94;5066542;28;20647;-57
2021/12/07 02:10:43;;;;;;;0.80;0.63;;;6.50;99.90;;;6.37;73.95;93658.19;5068526;28;20475;-57
2021/12/07 02:13:22;;;;;;;1.50;0.80;;;6.50;99.90;;;6.37;73.74;93637.31;5067345;28;20447;-58
2021/12/07 02:15:50;;;;;;;2.63;0.90;;;6.50;99.90;;;6.36;73.73;93645.28;5068439;28;20565;-58
2021/12/07 02:18:17;;;;;;;0.83;0.70;;;6.50;99.90;;;6.27;73.17;93633.91;5066808;28;20793;-57
2021/12/07 02:20:48;;;;;;;1.87;0.70;;;6.50;99.90;;;6.26;73.59;93640.91;5067681;28;21013;-57
2021/12/07 02:23:15;;;;;;;1.00;0.80;;;6.40;99.90;;;6.20;73.40;93651.13;5066851;28;20971;-57
2021/12/07 02:25:42;;;;;;;0.70;0.60;;;6.40;99.90;;;6.14;73.65;93662.16;5067168;28;20884;-57
2021/12/07 02:28:13;;;;;;;0.70;0.50;;;6.30;99.90;;;6.12;73.59;93656.22;5068140;28;20474;-58
2021/12/07 02:30:41;;;;;;;1.63;0.50;;;6.30;99.90;;;6.08;73.54;93653.91;5065511;28;20930;-57
2021/12/07 02:33:09;;;;;;;1.37;0.80;;;6.20;99.90;;;6.06;73.46;93655.84;5068321;28;20447;-57
2021/12/07 02:35:36;;;;;;;2.60;0.90;;;6.20;99.90;;;6.02;73.68;93638.00;5072001;28;20535;-56
2021/12/07 02:38:05;;;;;;;2.33;1.20;;;6.20;99.90;;;5.99;73.41;93639.09;5068489;28;20450;-57
2021/12/07 02:40:32;;;;;;;0.80;0.60;;;6.20;99.90;;;5.97;73.64;93635.81;5071874;28;20913;-56
2021/12/07 02:43:00;;;;;;;1.10;0.90;;;6.10;99.90;;;5.92;73.49;93632.78;5071390;28;20450;-57
2021/12/07 02:45:27;;;;;;;0.70;0.50;;;6.10;99.90;;;5.87;73.48;93624.53;5071153;28;20562;-56
2021/12/07 02:47:54;;;;;;;0.93;0.60;;;6.00;99.90;;;5.84;73.07;93632.66;5070436;28;20542;-57
2021/12/07 02:50:22;;;;;;;0.70;0.50;;;6.00;99.90;;;5.79;73.07;93643.50;5070403;28;20543;-57
2021/12/07 02:52:49;;;;;;;1.10;0.60;;;6.00;99.90;;;5.77;73.26;93649.84;5069409;28;20452;-56
2021/12/07 02:55:18;;;;;;;2.00;0.60;;;5.90;99.90;;;5.75;73.16;93658.63;5069629;28;20800;-57
2021/12/07 02:57:47;;;;;;;0.70;0.50;;;5.90;99.90;;;5.72;72.65;93652.88;5066238;28;20440;-58
2021/12/07 03:00:19;;;;;;;0.77;0.50;;;5.90;99.90;;;5.68;72.88;93657.53;5069893;28;20461;-57
2021/12/07 03:02:53;;;;;;;0.83;0.73;;;5.80;99.90;;;5.64;73.14;93656.19;5068427;28;20538;-58
2021/12/07 03:05:32;;;;;;;3.63;0.70;;;5.80;99.90;;;5.62;72.91;93646.84;5064114;28;20442;-56
2021/12/07 03:08:22;;;;;;;0.80;0.50;;;5.80;99.90;;;5.59;73.05;93647.94;5068915;28;20451;-57
2021/12/07 03:27:21;;;;;;;0.70;0.50;;;5.60;99.90;;;5.32;73.33;93641.66;5070722;28;20473;-58
2021/12/07 03:29:48;;;;;;;1.00;0.50;;;5.50;99.90;;;5.31;73.13;93639.19;5071590;28;20490;-58
2021/12/07 03:32:16;;;;;;;1.50;0.60;;;5.50;99.90;;;5.29;72.63;93647.16;5070771;28;20470;-58
2021/12/07 03:34:43;;;;;;;0.70;0.50;;;5.50;99.90;;;5.27;72.94;93627.44;5069200;28;20458;-57
2021/12/07 03:37:10;;;;;;;1.00;0.90;;;5.40;99.90;;;5.22;72.82;93633.06;5071533;28;20463;-58
2021/12/07 03:39:38;;;;;;;0.83;0.60;;;5.40;99.90;;;5.18;72.45;93634.28;5069328;28;20451;-58
2021/12/07 03:42:05;;;;;;;1.57;0.60;;;5.40;99.90;;;5.14;72.86;93644.16;5070718;28;20478;-56
2021/12/07 03:44:34;;;;;;;1.10;0.80;;;5.40;99.90;;;5.13;72.90;93631.28;5069500;28;20451;-57
2021/12/07 03:47:01;;;;;;;0.80;0.60;;;5.30;99.90;;;5.11;72.67;93627.97;5069789;28;20868;-58
2021/12/07 03:49:29;;;;;;;0.90;0.80;;;5.30;99.90;;;5.08;72.88;93629.09;5070796;28;21065;-57
2021/12/07 03:51:56;;;;;;;0.70;0.50;;;5.30;99.90;;;5.06;72.57;93627.56;5069823;28;20895;-58
2021/12/07 03:54:23;;;;;;;0.77;0.50;;;5.30;99.90;;;4.99;72.58;93625.50;5068091;28;20538;-58
2021/12/07 03:56:50;;;;;;;0.90;0.60;;;5.20;99.90;;;4.95;72.77;93629.34;5070092;28;20482;-58
2021/12/07 03:59:18;;;;;;;0.70;0.60;;;5.10;99.90;;;4.91;73.08;93630.59;5071201;28;20509;-59
2021/12/07 04:01:47;;;;;;;0.70;0.53;;;5.10;99.90;;;4.87;72.88;93626.59;5069566;28;20475;-57
2021/12/07 04:04:15;;;;;;;0.80;0.73;;;5.10;99.90;;;4.84;72.81;93627.69;5068431;28;20965;-57
2021/12/07 04:06:43;;;;;;;1.43;0.67;;;5.00;99.90;;;4.83;72.92;93630.41;5070345;28;20870;-55
2021/12/07 04:09:10;;;;;;;1.00;0.90;;;5.00;99.90;;;4.83;72.77;93626.06;5070261;28;20455;-58
2021/12/07 04:11:37;;;;;;;0.90;0.80;;;5.00;99.90;;;4.80;72.86;93628.94;5069730;28;20872;-56
2021/12/07 04:14:06;;;;;;;0.90;0.80;;;5.00;99.90;;;4.75;72.43;93631.09;5069262;28;20450;-56
2021/12/07 04:16:34;;;;;;;0.80;0.60;;;4.90;99.80;;;4.71;72.52;93626.28;5070492;28;20474;-56
2021/12/07 04:19:02;;;;;;;0.70;0.60;;;4.90;99.80;;;4.67;73.12;93625.75;5070000;28;20447;-58
2021/12/07 04:21:30;;;;;;;0.70;0.60;;;4.90;99.90;;;4.64;72.99;93632.03;5068557;28;20528;-56
2021/12/07 04:23:57;;;;;;;1.93;0.60;;;4.80;99.90;;;4.64;72.99;93631.22;5070731;28;21023;-57
2021/12/07 04:26:25;;;;;;;0.80;0.60;;;4.80;99.90;;;4.63;72.85;93635.63;5067874;28;20490;-57
2021/12/07 04:28:52;;;;;;;0.80;0.70;;;4.80;99.90;;;4.62;72.92;93636.56;5065787;28;20451;-59
2021/12/07 04:31:20;;;;;;;1.10;0.70;;;4.80;99.90;;;4.61;72.56;93636.69;5069901;28;20498;-59
2021/12/07 04:33:48;;;;;;;2.27;0.80;;;4.80;99.80;;;4.60;72.80;93640.25;5067906;28;20469;-58
2021/12/07 04:36:17;;;;;;;0.77;0.77;;;4.80;99.90;;;4.56;72.53;93631.91;5066065;28;20462;-58
2021/12/07 04:38:44;;;;;;;0.93;0.80;;;4.80;99.70;;;4.55;72.68;93638.06;5069458;28;20462;-57
2021/12/07 04:41:11;;;;;;;1.03;0.93;;;4.70;99.90;;;4.56;72.58;93642.31;5068140;28;20470;-57
2021/12/07 04:43:39;;;;;;;0.80;0.70;;;4.80;99.80;;;4.58;72.87;93636.97;5066892;28;20451;-59
2021/12/07 04:46:12;;;;;;;1.13;1.03;;;4.80;99.80;;;4.57;72.35;93630.94;5069770;28;21038;-58
2021/12/07 04:59:40;;;;;;;2.80;1.10;;;4.70;99.90;;;4.56;75.16;93634.50;5069564;28;20458;-58
2021/12/07 05:02:07;;;;;;;4.73;1.00;;;4.70;99.90;;;4.59;74.42;93629.03;5065265;28;20472;-56
2021/12/07 05:04:36;;;;;;;1.00;0.60;;;4.80;99.90;;;4.60;73.99;93633.28;5068581;28;20477;-55
2021/12/07 05:07:10;;;;;;;1.70;0.97;;;4.80;99.90;;;4.62;73.70;93633.97;5069205;28;20491;-54
2021/12/07 05:12:29;;;;;;;2.33;0.70;;;4.80;99.90;;;4.63;72.88;93630.41;5055840;28;20463;-56
2021/12/07 05:15:04;;;;;;;0.90;0.80;;;4.80;99.90;;;4.58;72.42;93631.75;5068416;28;20907;-56
2021/12/07 05:34:41;;;;;;;0.90;0.63;;;4.50;99.60;;;4.24;72.69;93639.91;5059521;28;20466;-57
2021/12/07 05:39:55;;;;;;;1.03;0.90;;;4.40;99.60;;;4.17;72.21;93634.41;5065935;28;20430;-58
2021/12/07 05:42:23;;;;;;;0.90;0.60;;;4.40;99.60;;;4.11;72.43;93634.94;5067714;28;20467;-57
2021/12/07 05:44:50;;;;;;;0.80;0.73;;;4.30;99.60;;;4.08;72.59;93633.41;5068671;28;20463;-57
2021/12/07 05:47:18;;;;;;;0.90;0.70;;;4.30;99.60;;;4.06;72.97;93631.88;5069514;28;20475;-57
2021/12/07 05:49:45;;;;;;;2.13;1.60;;;4.30;99.70;;;4.04;72.65;93624.19;5065425;28;20532;-58
2021/12/07 05:52:12;;;;;;;1.20;1.00;;;4.30;99.80;;;4.04;72.68;93629.41;5068271;28;20858;-58
2021/12/07 05:54:40;;;;;;;1.00;0.90;;;4.30;99.80;;;4.03;72.59;93632.13;5066769;28;20447;-58
2021/12/07 05:57:08;;;;;;;0.80;0.70;;;4.30;99.80;;;4.02;73.08;93630.50;5068670;28;20479;-59
2021/12/07 05:59:36;;;;;;;0.80;0.77;;;4.30;99.80;;;4.02;72.72;93622.69;5068821;28;20447;-57
2021/12/07 06:02:03;;;;;;;0.90;0.80;;;4.20;99.80;;;4.01;72.51;93628.84;5068618;28;20478;-58
2021/12/07 06:04:31;;;;;;;1.10;0.90;;;4.20;99.70;;;3.99;72.82;93631.59;5068478;28;20819;-57
2021/12/07 06:06:58;;;;;;;0.93;0.83;;;4.20;99.70;;;3.98;72.47;93632.53;5069368;28;20819;-58
2021/12/07 06:09:26;;;;;;;2.40;1.00;;;4.20;99.80;;;3.99;72.84;93635.97;5070383;28;20538;-58
2021/12/07 06:11:53;;;;;;;0.80;0.67;;;4.20;99.70;;;3.96;72.89;93637.03;5072663;28;20471;-59
2021/12/07 06:14:29;;;;;;;0.80;0.77;;;4.20;99.60;;;3.95;72.96;93631.03;5071762;28;20487;-58
2021/12/07 06:16:56;;;;;;;1.63;1.07;;;4.20;99.70;;;3.94;73.00;93631.97;5072934;28;20462;-59
2021/12/07 06:19:24;;;;;;;1.40;1.07;;;4.20;99.70;;;3.95;72.89;93636.22;5072252;28;20545;-58
2021/12/07 06:21:51;;;;;;;4.23;1.17;;;4.20;99.70;;;3.92;72.63;93626.09;5071697;28;20536;-57
2021/12/07 06:24:19;;;;;;;1.33;1.17;;;4.10;99.60;;;3.93;72.27;93637.31;5070543;28;20459;-59
2021/12/07 06:26:46;;;;;;;1.20;1.10;;;4.20;99.70;;;3.92;72.32;93636.50;5071908;28;20990;-58
2021/12/07 06:29:13;;;;;;;0.83;0.80;;;4.20;99.60;;;3.88;72.70;93640.28;5070340;28;20919;-59
2021/12/07 06:31:42;;;;;;;2.17;1.53;;;4.10;99.50;;;3.85;72.38;93630.16;5067972;28;20733;-58
2021/12/07 06:34:10;;;;;;;1.00;0.90;;;4.10;99.50;;;3.83;72.34;93629.47;5071874;28;20541;-59
2021/12/07 06:36:38;;;;;;;4.57;1.20;;;4.10;99.60;;;3.82;72.25;93637.41;5071914;28;20550;-59
2021/12/07 06:39:06;;;;;;;1.20;1.10;;;4.00;99.60;;;3.83;72.33;93629.47;5072444;28;20477;-59
2021/12/07 06:41:34;;;;;;;2.33;1.87;;;4.00;99.60;;;3.82;73.35;93634.81;5072837;28;20581;-59
2021/12/07 06:44:02;;;;;;;1.30;1.07;;;4.00;99.90;;;3.85;74.05;93624.13;5072160;28;20459;-58
2021/12/07 06:46:29;;;;;;;3.03;1.10;;;4.10;99.90;;;3.86;72.46;93629.22;5071633;28;20532;-60
2021/12/07 06:48:58;;;;;;;1.63;1.53;;;4.10;99.90;;;3.85;72.81;93627.56;5071750;28;20865;-60
2021/12/07 06:51:25;;;;;;;1.23;1.00;;;4.10;99.80;;;3.87;72.71;93632.63;5071744;28;20551;-58
2021/12/07 06:53:52;;;;;;;4.57;0.90;;;4.10;99.70;;;3.86;72.86;93631.00;5070526;28;20451;-58
2021/12/07 06:56:20;;;;;;;3.33;1.40;;;4.10;99.70;;;3.85;72.47;93637.16;5070491;28;20466;-58
2021/12/07 06:58:47;;;;;;;1.07;0.97;;;4.10;99.60;;;3.82;72.06;93621.78;5071320;28;20516;-58
2021/12/07 07:01:14;;;;;;;1.27;1.17;;;4.00;99.40;;;3.79;72.59;93630.66;5069225;28;20475;-58
2021/12/07 07:03:43;;;;;;;1.10;1.00;;;4.00;99.50;;;3.74;72.14;93633.66;5070865;28;21006;-58
2021/12/07 07:06:11;;;;;;;3.33;1.23;;;4.00;99.50;;;3.71;72.08;93633.91;5071165;28;20998;-58
2021/12/07 07:08:39;;;;;;;1.50;1.40;;;3.90;99.40;;;3.69;72.46;93637.63;5071677;28;20814;-58
2021/12/07 07:11:06;;;;;;;2.70;1.00;;;3.90;99.60;;;3.68;72.49;93630.75;5069217;28;20498;-58
2021/12/07 07:13:34;;;;;;;1.33;1.23;;;3.90;99.60;;;3.67;72.48;93629.09;5067986;28;20550;-60
2021/12/07 07:16:01;;;;;;;3.83;1.53;;;3.90;99.70;;;3.63;72.30;93631.16;5069897;28;20575;-59
2021/12/07 07:18:28;;;;;;;1.67;1.43;;;3.90;99.50;;;3.58;72.44;93631.53;5070273;28;20505;-59
2021/12/07 07:20:56;;;;;;;1.67;1.00;;;3.80;99.70;;;3.57;72.46;93637.66;5069675;28;20471;-59
2021/12/07 07:23:25;;;;;;;1.30;1.20;;;3.80;99.70;;;3.55;72.33;93636.16;5071230;28;20519;-58
2021/12/07 07:25:55;;;;;;;1.40;1.30;;;3.80;99.70;;;3.51;73.26;93632.97;5071588;28;20493;-58
2021/12/07 07:28:23;;;;;;;1.47;1.20;;;3.80;99.90;;;3.52;73.02;93639.84;5070044;28;20458;-59
2021/12/07 07:30:51;;;;;;;1.00;0.93;;;3.70;99.90;;;3.49;72.89;93640.09;5070270;28;20922;-58
2021/12/07 07:33:18;;;;;;;1.33;1.23;;;3.70;99.90;;;3.49;73.38;93639.28;5070279;28;20455;-59
2021/12/07 07:35:47;;;;;;;2.47;1.30;;;3.70;99.90;;;3.46;72.88;93637.75;5068706;28;20528;-59
2021/12/07 07:38:15;;;;;;;3.27;1.10;;;3.70;99.90;;;3.43;72.69;93634.59;5070302;28;20443;-59
2021/12/07 07:40:45;;;;;;;1.63;1.53;;;3.70;99.90;;;3.41;73.68;93634.72;5066996;28;20471;-58
2021/12/07 07:43:13;;;;;;;1.10;1.00;;;3.60;99.90;;;3.43;72.91;93638.00;5071772;28;20530;-57
2021/12/07 07:45:40;;;;;;;0.83;0.83;;;3.70;99.90;;;3.44;72.74;93639.66;5070168;28;20549;-59
2021/12/07 07:48:07;;;;;;;1.90;0.93;;;3.70;99.90;;;3.41;73.33;93637.31;5071141;28;20451;-58
2021/12/07 07:50:35;;;;;;;2.30;1.60;;;3.60;99.90;;;3.41;74.21;93637.31;5067126;28;20493;-58
2021/12/07 07:53:02;;;;;;;2.07;1.10;;;3.60;99.90;;;3.48;74.01;93645.41;5067265;28;20464;-59
2021/12/07 07:55:29;;;;;;;9.43;1.60;;;3.70;99.90;;;3.51;73.52;93642.56;5067111;28;20467;-59
2021/12/07 07:57:58;;;;;;;2.23;1.80;;;3.70;99.90;;;3.53;73.37;93641.50;5070751;28;20959;-59
2021/12/07 08:00:26;;;;;;;1.93;1.27;;;3.80;99.90;;;3.51;72.96;93638.19;5068526;28;20455;-57
2021/12/07 08:02:53;;;;;;;1.70;1.60;;;3.80;99.90;;;3.50;73.09;93646.13;5070034;28;20451;-58
2021/12/07 08:05:21;;;;;;;1.30;1.17;;;3.70;99.90;;;3.51;73.83;93642.56;5066313;28;20466;-58
2021/12/07 08:07:48;;;;;;;1.97;1.87;;;3.70;99.90;;;3.53;73.55;93636.31;5070775;28;20467;-58
2021/12/07 08:10:18;;;;;;;1.67;1.00;;;3.70;99.90;;;3.54;73.47;93637.94;5069010;28;20447;-58
2021/12/07 08:12:46;;;;;;;1.20;1.10;;;3.80;99.90;;;3.52;73.40;93639.03;5069800;28;20802;-59
2021/12/07 08:15:15;;;;;;;1.43;1.33;;;3.70;99.90;;;3.49;73.46;93640.09;5067749;28;20569;-60
2021/12/07 08:17:43;;;;;;;2.10;1.90;;;3.70;99.90;;;3.47;73.34;93644.59;5065224;28;20457;-58
2021/12/07 08:20:11;;;;;;;1.30;1.20;;;3.70;99.90;;;3.47;73.79;93642.00;5070390;28;20443;-59
2021/12/07 08:22:38;;;;;;;2.40;1.37;;;3.70;99.90;;;3.46;73.37;93642.13;5066598;28;20462;-57
2021/12/07 08:25:07;;;;;;;1.37;1.00;;;3.70;99.90;;;3.41;73.41;93653.72;5068969;28;20971;-59
2021/12/07 08:27:34;;;;;;;1.67;1.00;;;3.60;99.90;;;3.41;73.79;93653.72;5067847;28;20454;-57
2021/12/07 08:30:02;;;;;;;1.37;1.27;;;3.70;99.90;;;3.45;73.06;93653.47;5069650;28;20459;-57
2021/12/07 08:32:31;;;;;;;1.50;1.10;;;3.70;99.90;;;3.45;73.13;93649.09;5068551;28;20724;-59
2021/12/07 08:34:58;;;;;;;2.50;1.27;;;3.70;99.90;;;3.46;73.51;93655.13;5067200;28;20451;-58
2021/12/07 08:37:25;;;;;;;19.60;9.60;;;3.70;99.90;;;3.44;73.93;93657.84;5068358;28;20479;-59
2021/12/07 08:39:52;;;;;;;1.37;1.07;;;3.70;99.90;;;3.42;73.75;93657.16;5067937;28;20513;-59
2021/12/07 08:42:20;;;;;;;1.67;1.23;;;3.70;99.90;;;3.43;73.08;93664.00;5069512;28;20554;-58
2021/12/07 08:44:47;;;;;;;1.57;1.30;;;3.70;99.90;;;3.43;73.65;93661.41;5068851;28;20459;-59
2021/12/07 08:47:15;;;;;;;1.63;1.53;;;3.60;99.90;;;3.43;73.79;93666.59;5068168;28;20471;-58
2021/12/07 08:49:44;;;;;;;2.10;1.23;;;3.60;99.90;;;3.43;73.26;93660.59;5067513;28;20451;-57
2021/12/07 08:52:11;;;;;;;1.50;1.30;;;3.70;99.90;;;3.46;73.41;93673.34;5067885;28;20991;-58
2021/12/07 09:00:05;;;;;;;3.10;1.27;;;3.70;99.90;;;3.53;73.29;93669.25;5068938;28;20477;-58
2021/12/07 09:02:33;;;;;;;1.83;1.60;;;3.80;99.90;;;3.53;73.12;93677.91;5065840;28;20455;-59
2021/12/07 09:05:02;;;;;;;2.30;1.13;;;3.80;99.90;;;3.55;73.57;93675.16;5069503;28;21035;-58
2021/12/07 09:07:29;;;;;;;1.47;1.30;;;3.80;99.90;;;3.55;73.68;93670.78;5069352;28;20474;-59
2021/12/07 09:09:57;;;;;;;1.30;1.20;;;3.80;99.90;;;3.56;73.20;93682.84;5068652;28;20824;-59
2021/12/07 09:12:24;;;;;;;1.40;1.30;;;3.80;99.90;;;3.57;73.20;93676.66;5067216;28;20535;-59
2021/12/07 09:14:53;;;;;;;2.83;1.33;;;3.80;99.90;;;3.57;74.16;93678.44;5067287;28;20487;-61
2021/12/07 09:17:20;;;;;;;2.40;1.80;;;3.80;99.90;;;3.58;73.24;93680.13;5069297;28;21059;-57
2021/12/07 09:19:47;;;;;;;1.73;1.43;;;3.80;99.90;;;3.59;72.71;93677.38;5069493;28;20451;-59
2021/12/07 09:22:17;;;;;;;1.27;1.17;;;3.80;99.90;;;3.59;73.61;93671.34;5068010;28;20978;-59
2021/12/07 09:24:44;;;;;;;2.00;1.27;;;3.80;99.90;;;3.60;73.60;93673.00;5068521;28;20482;-60
2021/12/07 09:27:11;;;;;;;16.20;2.07;;;3.90;99.90;;;3.61;73.73;93674.66;5068326;28;20474;-59
2021/12/07 09:29:39;;;;;;;1.60;1.50;;;3.80;99.90;;;3.59;73.57;93667.00;5068807;28;20543;-60
2021/12/07 09:32:07;;;;;;;2.27;1.40;;;3.80;99.90;;;3.55;73.33;93665.59;5064175;28;20502;-59
2021/12/07 09:34:34;;;;;;;1.33;1.23;;;3.80;99.90;;;3.51;73.49;93663.38;5068251;28;20443;-59
2021/12/07 09:37:01;;;;;;;1.50;1.40;;;3.70;99.90;;;3.48;72.56;93669.63;5066311;28;20473;-60
2021/12/07 09:39:30;;;;;;;1.80;1.70;;;3.70;99.90;;;3.46;73.12;93663.75;5066826;28;20502;-61
2021/12/07 09:41:58;;;;;;;1.40;1.30;;;3.70;99.90;;;3.49;73.97;93662.69;5067787;28;20525;-59
2021/12/07 09:44:25;;;;;;;1.47;1.37;;;3.70;99.90;;;3.53;73.51;93666.66;5064244;28;20474;-58
2021/12/07 09:46:52;;;;;;;1.87;1.30;;;3.80;99.90;;;3.57;73.38;93663.66;5067670;28;21028;-59
2021/12/07 09:49:20;;;;;;;2.13;1.40;;;3.80;99.90;;;3.62;73.48;93657.28;5068073;28;20991;-59
2021/12/07 09:51:47;;;;;;;1.43;1.33;;;3.80;99.90;;;3.65;72.94;93657.03;5068516;28;20490;-59
2021/12/07 09:54:14;;;;;;;1.40;1.30;;;3.80;99.90;;;3.68;73.16;93654.97;5069439;28;20451;-59
2021/12/07 09:56:43;;;;;;;1.50;1.40;;;3.90;99.90;;;3.76;73.58;93651.72;5068598;28;20475;-59
2021/12/07 09:59:11;;;;;;;1.60;1.40;;;3.90;99.90;;;3.84;73.55;93649.34;5067783;28;20507;-59
2021/12/07 10:01:41;;;;;;;2.17;2.03;;;4.00;99.90;;;3.93;73.01;93648.56;5066269;28;20497;-59
2021/12/07 10:04:09;;;;;;;1.70;1.60;;;4.10;99.90;;;3.98;73.03;93655.13;5067748;28;20458;-59
2021/12/07 10:06:36;;;;;;;2.33;1.60;;;4.20;99.90;;;3.98;72.67;93649.94;5069186;28;20471;-58
2021/12/07 10:09:05;;;;;;;1.50;1.40;;;4.20;99.90;;;3.99;72.68;93646.38;5069581;28;20872;-59
2021/12/07 10:11:32;;;;;;;1.77;1.67;;;4.20;99.80;;;3.99;72.47;93649.78;5068199;28;20582;-58
2021/12/07 10:14:01;;;;;;;6.10;1.63;;;4.20;99.70;;;3.95;72.30;93649.25;5064356;28;20480;-59
2021/12/07 10:16:29;;;;;;;2.20;1.60;;;4.20;99.50;;;3.94;72.46;93652.78;5068717;28;20463;-59
2021/12/07 10:18:56;;;;;;;1.40;1.27;;;4.10;99.70;;;3.99;72.51;93646.38;5068262;28;20450;-59
2021/12/07 10:21:26;;;;;;;0.90;0.80;;;4.20;99.90;;;3.99;72.31;93649.78;5068205;28;21041;-58
2021/12/07 10:23:56;;;;;;;2.50;1.10;;;4.20;99.70;;;4.04;72.75;93649.41;5065943;28;20983;-59
2021/12/07 10:26:24;;;;;;;1.50;1.40;;;4.20;99.80;;;4.11;72.66;93645.34;5068402;28;20581;-59
2021/12/07 10:28:53;;;;;;;2.33;1.40;;;4.30;99.90;;;4.20;72.48;93648.91;5064252;28;20971;-59
2021/12/07 10:31:26;;;;;;;0.90;0.90;;;4.40;99.90;;;4.28;72.55;93636.91;5065306;28;20516;-58
2021/12/07 10:33:57;;;;;;;1.37;1.27;;;4.50;99.80;;;4.38;72.38;93638.69;5067854;28;20534;-59
2021/12/07 10:36:26;;;;;;;1.23;1.03;;;4.50;99.80;;;4.43;72.16;93636.50;5066888;28;20527;-59
2021/12/07 10:39:05;;;;;;;1.23;1.17;;;4.70;99.60;;;4.53;71.40;93644.38;5066608;28;20462;-59
2021/12/07 10:41:33;;;;;;;1.23;1.13;;;4.70;99.20;;;4.54;71.39;93644.25;5063324;28;20477;-58
2021/12/07 10:44:04;;;;;;;1.63;1.53;;;4.70;99.00;;;4.58;72.00;93635.19;5068418;28;20504;-59
2021/12/07 10:46:52;;;;;;;1.77;1.10;;;4.80;99.50;;;4.60;71.03;93625.47;5065589;28;20932;-59
2021/12/07 10:49:30;;;;;;;1.77;1.60;;;4.80;98.90;;;4.62;71.15;93630.53;5066581;28;20502;-59
2021/12/07 10:52:14;;;;;;;2.37;2.17;;;4.80;98.80;;;4.64;70.60;93634.63;5067600;28;20490;-59
2021/12/07 10:54:46;;;;;;;1.90;1.80;;;4.80;98.50;;;4.66;70.79;93634.50;5068591;28;20549;-58
2021/12/07 10:57:16;;;;;;;3.53;2.13;;;4.80;98.70;;;4.66;70.83;93637.97;5070995;28;20556;-58
2021/12/07 11:00:16;;;;;;;2.00;1.90;;;4.90;98.60;;;4.67;70.71;93626.56;5071504;28;20668;-59
2021/12/07 11:02:47;;;;;;;1.90;1.80;;;4.90;98.60;;;4.65;70.36;93625.88;5070666;28;20518;-58
2021/12/07 11:05:19;;;;;;;1.60;1.47;;;4.90;98.20;;;4.63;70.49;93625.19;5070161;28;20418;-58
2021/12/07 11:07:46;;;;;;;2.20;2.10;;;4.80;98.20;;;4.64;70.38;93621.63;5071368;28;20450;-59
2021/12/07 11:10:17;;;;;;;3.27;2.50;;;4.80;98.20;;;4.65;70.61;93620.69;5070728;28;20844;-59
2021/12/07 11:12:50;;;;;;;17.93;2.20;;;4.80;98.60;;;4.66;70.29;93608.47;5070665;28;20482;-59
2021/12/07 11:15:23;;;;;;;2.03;1.93;;;4.80;98.50;;;4.66;70.42;93608.47;5069687;28;20454;-60
2021/12/07 11:17:54;;;;;;;2.00;1.87;;;4.80;98.30;;;4.61;70.21;93614.06;5069378;28;20959;-58
2021/12/07 11:20:21;;;;;;;1.90;1.73;;;4.80;97.90;;;4.56;70.47;93603.25;5070372;28;20811;-59
2021/12/07 11:22:52;;;;;;;1.47;1.37;;;4.70;98.20;;;4.57;70.54;93599.69;5070175;28;20563;-59
2021/12/07 11:25:53;;;;;;;1.57;1.30;;;4.70;98.20;;;4.56;70.45;93598.03;5066474;28;20447;-57
2021/12/07 11:31:18;;;;;;;2.23;1.63;;;4.80;98.00;;;4.62;70.24;93605.31;5070644;28;20438;-58
2021/12/07 11:33:47;;;;;;;1.23;1.13;;;4.80;98.00;;;4.60;70.14;93609.84;5070290;28;20940;-58
2021/12/07 11:36:25;;;;;;;1.40;1.30;;;4.80;97.90;;;4.61;70.19;93606.25;5068854;28;20471;-62
2021/12/07 11:38:53;;;;;;;1.40;1.20;;;4.80;97.90;;;4.62;70.25;93602.72;5068464;28;20447;-57
2021/12/07 11:41:27;;;;;;;1.13;1.03;;;4.80;98.00;;;4.65;69.87;93606.84;5070426;28;20953;-57
2021/12/07 11:43:59;;;;;;;1.50;1.40;;;4.90;98.00;;;4.65;70.02;93618.06;5070561;28;20963;-56
2021/12/07 11:46:28;;;;;;;1.40;1.00;;;4.90;97.60;;;4.63;69.61;93614.78;5070859;28;20463;-56
2021/12/07 11:49:15;;;;;;;1.20;1.10;;;4.90;97.60;;;4.55;69.51;93601.59;5070173;28;20451;-57
2021/12/07 11:51:43;;;;;;;2.23;1.77;;;4.80;97.30;;;4.47;69.70;93598.84;5069168;28;21079;-59
2021/12/07 11:54:11;;;;;;;3.10;1.27;;;4.70;97.40;;;4.45;69.87;93601.59;5068395;28;20452;-58
2021/12/07 11:56:38;;;;;;;1.30;1.20;;;4.70;97.60;;;4.49;70.15;93612.53;5070599;28;20475;-57
2021/12/07 11:59:10;;;;;;;1.47;1.37;;;4.70;97.90;;;4.49;69.79;93612.53;5070274;28;20921;-59
2021/12/07 12:01:37;;;;;;;1.70;1.50;;;4.70;97.80;;;4.51;69.89;93605.44;5069802;28;20466;-59
2021/12/07 12:04:05;;;;;;;1.30;1.13;;;4.70;97.90;;;4.57;69.64;93601.47;5067965;28;20447;-59
2021/12/07 12:06:35;;;;;;;1.97;1.50;;;4.70;97.60;;;4.60;69.61;93593.38;5069412;28;20470;-58
2021/12/07 12:09:03;;;;;;;3.03;1.70;;;4.80;97.60;;;4.61;69.75;93600.25;5069825;28;20451;-58